Time;durP1;ratioP1;P1;durP2;ratioP2;P2;SDS_P1;SDS_P2;PMS_P1;PMS_P2;Temp;Humidity;BMP_temperature;BMP_pressure;BME280_temperature;BME280_humidity;BME280_pressure;Samples;Min_cycle;Max_cycle;Signal;HPM_P1;HPM_P2
2022/07/27 00:00:19;;;;;;;2.35;0.80;;;;;;;18.61;57.44;100302.78;5035692;28;20377;-60
2022/07/27 00:02:45;;;;;;;6.22;1.50;;;;;;;18.62;57.78;100312.47;5035451;28;20042;-60
2022/07/27 00:05:10;;;;;;;6.28;1.35;;;;;;;18.60;57.69;100311.72;5035329;28;20033;-60
2022/07/27 00:07:36;;;;;;;3.47;1.00;;;;;;;18.56;57.83;100306.66;5035232;28;20029;-60
2022/07/27 00:10:02;;;;;;;4.20;1.35;;;;;;;18.58;57.98;100310.06;5035224;28;20037;-60
2022/07/27 00:12:28;;;;;;;3.10;0.93;;;;;;;18.56;58.12;100317.28;5033937;28;20035;-58
2022/07/27 00:14:58;;;;;;;1.58;0.80;;;;;;;18.50;58.37;100310.50;5035107;28;20029;-58
2022/07/27 00:17:24;;;;;;;2.80;0.80;;;;;;;18.46;58.32;100317.78;5033633;28;20546;-58
2022/07/27 00:19:50;;;;;;;2.75;0.80;;;;;;;18.44;58.47;100319.69;5033847;28;20045;-58
2022/07/27 00:22:16;;;;;;;4.13;0.80;;;;;;;18.41;58.55;100321.66;5033412;28;20048;-59
2022/07/27 00:24:41;;;;;;;3.08;0.90;;;;;;;18.30;58.87;100316.91;5017378;28;20376;-58
2022/07/27 00:27:07;;;;;;;1.83;0.77;;;;;;;18.29;59.10;100320.50;5033681;28;20056;-58
2022/07/27 00:29:33;;;;;;;2.03;0.90;;;;;;;18.34;58.72;100331.75;5033703;28;20108;-58
2022/07/27 00:31:58;;;;;;;2.63;0.80;;;;;;;18.31;58.95;100318.66;5033826;28;20037;-58
2022/07/27 00:34:24;;;;;;;2.95;1.10;;;;;;;18.24;59.14;100319.06;5034966;28;20072;-58
2022/07/27 00:36:49;;;;;;;5.88;1.23;;;;;;;18.27;58.88;100334.81;5035045;28;20350;-58
2022/07/27 00:39:17;;;;;;;4.45;1.30;;;;;;;18.21;59.27;100341.34;5034761;28;20029;-58
2022/07/27 00:41:44;;;;;;;2.75;0.90;;;;;;;18.19;59.15;100345.88;5034864;28;20072;-58
2022/07/27 00:44:11;;;;;;;3.78;1.10;;;;;;;18.17;59.11;100345.97;5033311;28;20068;-58
2022/07/27 00:46:37;;;;;;;3.50;0.90;;;;;;;18.13;59.34;100340.91;5033361;28;20037;-58
2022/07/27 00:49:03;;;;;;;3.90;0.90;;;;;;;18.16;59.33;100348.72;5016823;28;20084;-58
2022/07/27 00:51:29;;;;;;;4.13;1.10;;;;;;;18.14;59.36;100351.44;5033115;28;20030;-59
2022/07/27 00:53:55;;;;;;;4.18;1.35;;;;;;;18.11;59.26;100342.78;5034640;28;20041;-59
2022/07/27 00:56:21;;;;;;;5.50;1.15;;;;;;;18.06;59.41;100351.00;5033565;28;20037;-59
2022/07/27 00:58:49;;;;;;;2.50;1.10;;;;;;;18.08;59.61;100337.63;5034325;28;20073;-59
2022/07/27 01:01:18;;;;;;;5.85;1.10;;;;;;;18.06;59.47;100344.81;5032982;28;20079;-59
2022/07/27 01:03:44;;;;;;;4.50;1.20;;;;;;;18.03;59.71;100339.66;5032964;28;20420;-59
2022/07/27 01:06:11;;;;;;;4.03;1.20;;;;;;;17.98;59.70;100345.22;5033098;28;20037;-59
2022/07/27 01:08:36;;;;;;;4.07;1.20;;;;;;;17.92;59.69;100349.09;5034507;28;20041;-59
2022/07/27 01:11:06;;;;;;;4.57;1.00;;;;;;;17.91;59.82;100342.06;5034139;28;20076;-60
2022/07/27 01:13:31;;;;;;;5.22;1.33;;;;;;;17.97;59.72;100341.72;5032987;28;20037;-59
2022/07/27 01:15:58;;;;;;;3.55;1.20;;;;;;;17.98;59.67;100346.09;5034146;28;20116;-59
2022/07/27 01:18:26;;;;;;;3.42;1.20;;;;;;;17.90;59.81;100340.31;5033626;28;20025;-59
2022/07/27 01:20:52;;;;;;;5.03;1.10;;;;;;;17.97;59.60;100338.19;5033864;28;20121;-60
2022/07/27 01:23:18;;;;;;;3.60;1.20;;;;;;;17.96;59.62;100339.16;5033065;28;20115;-60
2022/07/27 01:25:44;;;;;;;3.35;1.08;;;;;;;17.88;59.82;100344.88;5034156;28;20061;-59
2022/07/27 01:28:09;;;;;;;2.30;1.25;;;;;;;17.85;59.98;100346.81;5033726;28;20026;-59
2022/07/27 01:30:34;;;;;;;5.93;1.33;;;;;;;17.84;59.92;100345.13;5031980;28;20038;-59
2022/07/27 01:33:06;;;;;;;4.13;1.02;;;;;;;17.82;60.00;100339.00;5033680;28;20531;-59
2022/07/27 01:35:32;;;;;;;4.45;1.00;;;;;;;17.82;60.17;100341.66;5032219;28;20077;-59
2022/07/27 01:37:58;;;;;;;2.22;0.98;;;;;;;17.80;60.01;100339.09;5016105;28;20030;-59
2022/07/27 01:40:24;;;;;;;2.42;0.90;;;;;;;17.83;59.84;100344.22;5033493;28;20065;-60
2022/07/27 01:42:50;;;;;;;3.78;1.20;;;;;;;17.81;60.02;100342.59;5032415;28;20465;-59
2022/07/27 01:45:16;;;;;;;4.25;1.30;;;;;;;17.84;59.68;100335.34;5032575;28;20033;-59
2022/07/27 01:47:41;;;;;;;3.50;1.08;;;;;;;17.84;59.56;100335.34;5033566;28;20514;-59
2022/07/27 01:50:07;;;;;;;6.30;1.15;;;;;;;17.84;59.55;100340.66;5033630;28;20064;-59
2022/07/27 01:52:33;;;;;;;4.47;1.05;;;;;;;17.67;59.89;100343.28;5015616;28;20506;-59
2022/07/27 01:54:58;;;;;;;3.67;1.00;;;;;;;17.55;60.07;100334.13;5032278;28;20033;-59
2022/07/27 01:57:24;;;;;;;3.88;1.30;;;;;;;17.54;60.13;100331.56;5033517;28;20543;-59
2022/07/27 01:59:49;;;;;;;2.97;0.90;;;;;;;17.55;59.86;100330.63;5033589;28;20044;-60
2022/07/27 02:02:15;;;;;;;2.45;0.70;;;;;;;17.57;60.39;100331.41;5015652;28;20095;-59
2022/07/27 02:04:43;;;;;;;3.88;1.20;;;;;;;17.40;60.64;100334.94;5033420;28;20453;-59
2022/07/27 02:07:09;;;;;;;2.58;1.17;;;;;;;17.51;60.40;100332.56;5033272;28;20385;-59
2022/07/27 02:09:34;;;;;;;3.28;0.93;;;;;;;17.51;60.49;100332.56;5033268;28;20461;-59
2022/07/27 02:14:44;;;;;;;3.10;0.90;;;;;;;17.54;59.81;100327.09;5033198;28;20080;-59
2022/07/27 02:17:09;;;;;;;4.72;0.80;;;;;;;17.54;59.88;100328.91;5033107;28;20037;-60
2022/07/27 02:19:37;;;;;;;2.50;1.00;;;;;;;17.43;60.01;100334.75;5033456;28;20039;-59
2022/07/27 02:22:02;;;;;;;3.20;1.05;;;;;;;17.32;60.25;100329.16;5033369;28;20038;-59
2022/07/27 02:24:28;;;;;;;5.07;1.10;;;;;;;17.25;60.26;100325.94;5032054;28;20082;-59
2022/07/27 02:26:56;;;;;;;3.40;0.75;;;;;;;17.10;60.66;100324.03;5033298;28;20362;-59
2022/07/27 02:29:22;;;;;;;2.00;0.90;;;;;;;17.01;60.81;100324.50;5031994;28;20052;-59
2022/07/27 02:31:47;;;;;;;2.75;1.08;;;;;;;17.04;61.35;100324.38;5033631;28;20469;-59
2022/07/27 02:34:15;;;;;;;3.72;0.90;;;;;;;17.12;60.84;100330.16;5031706;28;20496;-60
2022/07/27 02:36:40;;;;;;;6.57;1.20;;;;;;;17.15;60.58;100325.53;5016093;28;20037;-59
2022/07/27 02:39:06;;;;;;;2.38;0.98;;;;;;;17.26;60.40;100332.09;5033124;28;20041;-59
2022/07/27 02:41:31;;;;;;;3.22;1.08;;;;;;;17.27;60.45;100329.34;5035834;28;20119;-59
2022/07/27 02:43:56;;;;;;;3.83;1.13;;;;;;;17.40;59.99;100341.09;5036747;28;20034;-59
2022/07/27 02:46:22;;;;;;;4.72;1.20;;;;;;;17.41;59.72;100334.00;5036641;28;20041;-59
2022/07/27 02:48:47;;;;;;;3.53;1.10;;;;;;;17.34;59.84;100335.22;5036979;28;20466;-59
2022/07/27 02:51:13;;;;;;;3.70;1.10;;;;;;;17.30;60.03;100331.88;5036617;28;20029;-59
2022/07/27 02:53:39;;;;;;;3.13;0.98;;;;;;;17.30;60.09;100342.50;5036702;28;20040;-59
2022/07/27 02:56:05;;;;;;;5.75;1.20;;;;;;;17.33;59.75;100337.03;5037102;28;20062;-59
2022/07/27 02:58:30;;;;;;;5.00;1.23;;;;;;;17.35;59.48;100337.81;5035276;28;20037;-59
2022/07/27 03:00:56;;;;;;;4.30;1.05;;;;;;;17.38;59.51;100345.63;5036644;28;20033;-59
2022/07/27 03:03:21;;;;;;;6.65;1.40;;;;;;;17.10;60.00;100345.28;5035337;28;20469;-59
2022/07/27 03:05:47;;;;;;;3.97;1.17;;;;;;;17.09;59.99;100340.91;5036512;28;20029;-59
2022/07/27 03:08:13;;;;;;;6.13;1.35;;;;;;;17.04;60.04;100340.28;5036380;28;20121;-59
2022/07/27 03:10:38;;;;;;;4.57;1.05;;;;;;;17.16;59.79;100337.88;5036445;28;20112;-59
2022/07/27 03:13:04;;;;;;;2.08;1.15;;;;;;;17.18;59.55;100343.97;5035035;28;20087;-59
2022/07/27 03:15:31;;;;;;;5.22;1.00;;;;;;;17.23;59.44;100343.72;5036533;28;20124;-59
2022/07/27 03:17:57;;;;;;;5.38;1.20;;;;;;;17.29;59.44;100351.41;5019056;28;20038;-59
2022/07/27 03:20:22;;;;;;;3.05;1.13;;;;;;;17.30;59.56;100347.81;5036111;28;20103;-59
2022/07/27 03:22:48;;;;;;;3.88;1.30;;;;;;;17.36;59.11;100355.47;5036087;28;20116;-59
2022/07/27 03:25:13;;;;;;;3.65;0.90;;;;;;;17.47;59.03;100354.91;5036131;28;20033;-59
2022/07/27 03:27:38;;;;;;;3.50;1.10;;;;;;;17.54;59.05;100356.31;5036056;28;20462;-59
2022/07/27 03:30:05;;;;;;;5.75;1.10;;;;;;;17.55;58.37;100350.06;5036096;28;20033;-59
2022/07/27 03:32:30;;;;;;;5.95;1.23;;;;;;;17.50;58.42;100357.44;5034703;28;20041;-59
2022/07/27 03:34:56;;;;;;;6.20;1.10;;;;;;;17.49;58.52;100356.56;5035835;28;20076;-59
2022/07/27 03:37:21;;;;;;;7.00;1.45;;;;;;;17.46;58.19;100356.72;5035950;28;20450;-59
2022/07/27 03:39:47;;;;;;;5.70;1.10;;;;;;;17.51;58.33;100359.13;5035832;28;20041;-59
2022/07/27 03:42:12;;;;;;;7.72;1.50;;;;;;;17.52;58.20;100354.72;5035567;28;20036;-60
2022/07/27 03:44:38;;;;;;;3.38;1.10;;;;;;;17.67;57.90;100353.91;5035758;28;20124;-60
2022/07/27 03:47:04;;;;;;;3.13;0.80;;;;;;;17.70;58.97;100353.75;5035779;28;20124;-59
2022/07/27 03:49:29;;;;;;;3.47;1.00;;;;;;;18.08;59.18;100357.09;5034801;28;20465;-59
2022/07/27 03:51:55;;;;;;;4.40;1.17;;;;;;;18.30;57.71;100358.59;5033852;28;20048;-59
2022/07/27 03:54:20;;;;;;;2.80;0.85;;;;;;;18.43;57.08;100354.31;5035539;28;20034;-59
2022/07/27 03:56:46;;;;;;;3.00;1.00;;;;;;;18.43;56.35;100360.53;5035792;28;20076;-60
2022/07/27 03:59:11;;;;;;;2.35;1.05;;;;;;;18.26;56.95;100357.06;5035937;28;20072;-59
2022/07/27 04:01:36;;;;;;;4.25;1.10;;;;;;;18.38;56.67;100357.25;5035284;28;20061;-59
2022/07/27 04:04:02;;;;;;;8.48;1.60;;;;;;;18.37;56.50;100370.63;5035302;28;20030;-59
2022/07/27 04:06:28;;;;;;;4.10;0.98;;;;;;;18.48;56.52;100367.41;5035097;28;20550;-59
2022/07/27 04:08:53;;;;;;;6.22;1.30;;;;;;;18.56;55.95;100362.53;5035259;28;20492;-59
2022/07/27 04:11:19;;;;;;;3.88;1.10;;;;;;;18.66;56.21;100366.38;5034148;28;20041;-59
2022/07/27 04:13:48;;;;;;;5.40;1.20;;;;;;;18.78;56.43;100359.53;5033639;28;20057;-60
2022/07/27 04:16:13;;;;;;;4.00;1.30;;;;;;;18.87;55.54;100370.56;5034195;28;20037;-59
2022/07/27 04:18:38;;;;;;;4.50;1.50;;;;;;;18.85;55.33;100367.09;5035089;28;20029;-59
2022/07/27 04:21:05;;;;;;;5.03;1.50;;;;;;;18.88;55.32;100366.94;5034913;28;20063;-59
2022/07/27 04:23:31;;;;;;;6.78;1.60;;;;;;;18.97;54.93;100359.38;5035192;28;20079;-59
2022/07/27 04:25:57;;;;;;;5.88;2.35;;;;;;;18.82;54.97;100367.28;5033432;28;20038;-59
2022/07/27 04:28:22;;;;;;;5.35;1.85;;;;;;;18.91;55.34;100363.22;5034653;28;20120;-59
2022/07/27 04:30:48;;;;;;;5.68;1.45;;;;;;;18.70;55.41;100374.13;5034727;28;20044;-59
2022/07/27 04:33:14;;;;;;;7.28;1.70;;;;;;;18.66;55.64;100371.69;5033425;28;20425;-59
2022/07/27 04:35:39;;;;;;;3.30;1.30;;;;;;;18.48;55.81;100367.41;5033190;28;20037;-59
2022/07/27 04:38:05;;;;;;;5.45;1.90;;;;;;;18.74;55.61;100361.50;5034834;28;20087;-59
2022/07/27 04:40:34;;;;;;;5.47;2.15;;;;;;;18.83;56.01;100365.47;5034528;28;20061;-60
2022/07/27 04:43:02;;;;;;;5.68;1.67;;;;;;;18.89;55.19;100363.31;5033420;28;20028;-59
2022/07/27 04:45:28;;;;;;;3.65;1.27;;;;;;;19.08;55.45;100362.28;5017664;28;20068;-59
2022/07/27 04:47:53;;;;;;;7.95;1.77;;;;;;;19.07;54.90;100360.56;5034593;28;20065;-59
2022/07/27 04:50:19;;;;;;;6.35;1.85;;;;;;;19.12;54.61;100358.50;5034484;28;20044;-59
2022/07/27 04:52:44;;;;;;;3.83;1.52;;;;;;;19.23;54.39;100361.41;5033524;28;20029;-59
2022/07/27 04:55:10;;;;;;;7.93;2.00;;;;;;;19.41;54.17;100368.31;5034228;28;20034;-59
2022/07/27 04:57:35;;;;;;;6.00;2.10;;;;;;;19.36;53.46;100365.06;5034369;28;20033;-59
2022/07/27 05:00:01;;;;;;;3.63;1.27;;;;;;;19.41;53.72;100360.31;5034422;28;20075;-60
2022/07/27 05:02:27;;;;;;;6.05;1.45;;;;;;;19.56;53.88;100368.38;5033335;28;20065;-59
2022/07/27 05:04:53;;;;;;;4.32;1.30;;;;;;;19.68;53.68;100370.34;5033314;28;20029;-59
2022/07/27 05:07:18;;;;;;;3.95;1.30;;;;;;;19.86;53.37;100376.38;5033416;28;20034;-59
2022/07/27 05:09:44;;;;;;;6.63;2.10;;;;;;;19.85;52.81;100372.84;5032839;28;20476;-59
2022/07/27 05:12:09;;;;;;;6.25;2.20;;;;;;;19.53;53.04;100368.56;5034348;28;20044;-60
2022/07/27 05:14:35;;;;;;;5.22;1.48;;;;;;;19.61;53.02;100367.19;5032722;28;20104;-59
2022/07/27 05:17:00;;;;;;;4.07;1.40;;;;;;;19.52;53.22;100362.38;5034044;28;20114;-59
2022/07/27 05:19:26;;;;;;;4.00;1.58;;;;;;;19.60;53.25;100367.25;5033971;28;20470;-59
2022/07/27 05:21:51;;;;;;;3.20;1.25;;;;;;;19.53;53.54;100364.09;5032660;28;20037;-59
2022/07/27 05:24:17;;;;;;;3.28;1.08;;;;;;;19.53;53.42;100373.88;5032673;28;20037;-59
2022/07/27 05:26:42;;;;;;;4.72;1.67;;;;;;;19.51;53.30;100366.00;5034150;28;20374;-59
2022/07/27 05:29:07;;;;;;;5.05;1.25;;;;;;;19.58;53.24;100372.66;5034069;28;20100;-59
2022/07/27 05:31:33;;;;;;;2.60;0.95;;;;;;;19.80;52.67;100369.63;5033953;28;20124;-59
2022/07/27 05:34:01;;;;;;;5.13;1.17;;;;;;;20.00;52.23;100387.06;5032661;28;20091;-59
2022/07/27 05:36:27;;;;;;;4.13;1.00;;;;;;;19.80;52.42;100382.94;5033657;28;20076;-59
2022/07/27 05:38:52;;;;;;;4.93;1.20;;;;;;;19.49;53.13;100383.88;5033656;28;20073;-60
2022/07/27 05:41:33;;;;;;;5.85;1.30;;;;;;;19.74;52.55;100379.78;5032924;28;20026;-59
2022/07/27 05:43:59;;;;;;;4.85;1.20;;;;;;;19.67;52.33;100382.81;5033912;28;20072;-59
2022/07/27 05:46:24;;;;;;;4.15;1.15;;;;;;;19.80;52.21;100377.59;5032608;28;20041;-59
2022/07/27 05:48:57;;;;;;;6.35;1.08;;;;;;;19.99;51.50;100377.38;5033466;28;20033;-59
2022/07/27 05:51:23;;;;;;;3.08;1.00;;;;;;;20.08;51.13;100382.13;5032385;28;20044;-59
2022/07/27 05:53:48;;;;;;;2.25;0.65;;;;;;;19.91;51.08;100382.31;5032133;28;20033;-59
2022/07/27 05:56:19;;;;;;;5.53;0.73;;;;;;;19.93;50.99;100383.91;5032184;28;20038;-59
2022/07/27 05:58:45;;;;;;;2.88;0.73;;;;;;;19.98;51.22;100390.78;5033515;28;20041;-59
2022/07/27 06:01:10;;;;;;;4.25;0.80;;;;;;;20.27;50.94;100379.19;5032397;28;20038;-60
2022/07/27 06:03:37;;;;;;;5.38;1.38;;;;;;;20.41;50.79;100384.50;5032298;28;20045;-59
2022/07/27 06:08:46;;;;;;;7.90;1.70;;;;;;;20.19;50.31;100378.81;5033597;28;20504;-59
2022/07/27 06:11:13;;;;;;;7.25;1.60;;;;;;;20.19;50.29;100378.81;5033319;28;20038;-59
2022/07/27 06:13:38;;;;;;;7.00;1.50;;;;;;;20.31;49.91;100375.38;5033259;28;20033;-59
2022/07/27 06:16:04;;;;;;;4.47;0.80;;;;;;;20.29;50.17;100390.63;5034398;28;20397;-59
2022/07/27 06:18:30;;;;;;;4.88;1.08;;;;;;;20.61;49.67;100387.78;5037092;28;20049;-60
2022/07/27 06:20:55;;;;;;;3.95;1.20;;;;;;;20.72;49.40;100393.31;5037256;28;20082;-59
2022/07/27 06:23:21;;;;;;;4.53;1.35;;;;;;;20.73;49.24;100391.50;5037023;28;20116;-59
2022/07/27 06:25:46;;;;;;;3.30;0.68;;;;;;;21.00;48.80;100395.06;5036227;28;20111;-59
2022/07/27 06:28:11;;;;;;;3.90;0.63;;;;;;;21.13;49.23;100392.44;5037134;28;20038;-59
2022/07/27 06:30:37;;;;;;;4.22;0.60;;;;;;;21.12;48.30;100396.06;5019492;28;20047;-60
2022/07/27 06:33:05;;;;;;;3.97;0.85;;;;;;;21.24;48.83;100389.94;5036744;28;20037;-60
2022/07/27 06:35:31;;;;;;;3.38;1.00;;;;;;;21.35;47.64;100392.78;5035580;28;20084;-60
2022/07/27 06:37:57;;;;;;;4.50;0.80;;;;;;;21.64;47.56;100398.84;5035766;28;20033;-60
2022/07/27 06:40:22;;;;;;;2.75;0.50;;;;;;;21.88;47.79;100400.81;5036093;28;20033;-60
2022/07/27 06:42:48;;;;;;;2.53;0.70;;;;;;;21.91;47.87;100387.25;5036791;28;20037;-60
2022/07/27 06:45:13;;;;;;;5.32;1.48;;;;;;;22.19;47.49;100388.91;5036813;28;20029;-60
2022/07/27 06:47:40;;;;;;;1.17;0.47;;;;;;;22.52;46.85;100390.16;5036834;28;20029;-60
2022/07/27 06:50:06;;;;;;;6.30;1.15;;;;;;;21.97;46.37;100393.97;5035484;28;20061;-60
2022/07/27 06:52:32;;;;;;;3.05;0.90;;;;;;;22.08;46.89;100394.94;5036092;28;20092;-60
2022/07/27 06:54:57;;;;;;;4.22;0.90;;;;;;;22.20;46.54;100387.94;5018749;28;20430;-60
2022/07/27 06:57:23;;;;;;;4.30;0.70;;;;;;;22.20;46.04;100387.94;5036607;28;20026;-60
2022/07/27 06:59:49;;;;;;;6.30;0.90;;;;;;;21.82;45.85;100394.09;5036509;28;20121;-60
2022/07/27 07:02:16;;;;;;;4.93;0.63;;;;;;;22.09;46.11;100391.31;5036305;28;20084;-60
2022/07/27 07:04:42;;;;;;;2.92;0.88;;;;;;;22.21;45.30;100392.31;5018715;28;20057;-60
2022/07/27 07:07:07;;;;;;;2.67;0.70;;;;;;;22.95;44.31;100389.78;5035392;28;20444;-60
2022/07/27 07:09:36;;;;;;;3.55;0.77;;;;;;;23.07;44.05;100396.91;5036061;28;20029;-59
2022/07/27 07:12:01;;;;;;;3.00;0.55;;;;;;;23.58;43.53;100388.63;5034970;28;20075;-60
2022/07/27 07:14:29;;;;;;;2.72;0.55;;;;;;;24.10;42.61;100392.72;5036187;28;20424;-60
2022/07/27 07:16:54;;;;;;;3.17;0.60;;;;;;;23.90;42.11;100396.06;5034890;28;20033;-60
2022/07/27 07:19:20;;;;;;;3.35;0.63;;;;;;;23.41;42.62;100391.72;5036292;28;20191;-60
2022/07/27 07:21:46;;;;;;;3.00;0.85;;;;;;;22.75;44.00;100413.47;5018250;28;20038;-60
2022/07/27 07:24:12;;;;;;;3.80;0.80;;;;;;;22.10;45.10;100402.88;5036125;28;20034;-60
2022/07/27 07:26:38;;;;;;;3.22;0.77;;;;;;;21.57;45.63;100407.38;5033721;28;20033;-59
2022/07/27 07:29:04;;;;;;;5.93;0.98;;;;;;;21.23;46.30;100419.44;5035878;28;20465;-60
2022/07/27 07:31:30;;;;;;;1.90;0.47;;;;;;;21.52;46.07;100405.03;5018000;28;20041;-60
2022/07/27 07:33:57;;;;;;;1.55;0.50;;;;;;;21.66;45.82;100406.75;5036418;28;20451;-60
2022/07/27 07:36:23;;;;;;;5.18;0.60;;;;;;;21.77;45.28;100414.06;5034684;28;20056;-60
2022/07/27 07:38:48;;;;;;;2.83;0.45;;;;;;;21.43;45.67;100410.13;5036191;28;20396;-60
2022/07/27 07:41:14;;;;;;;1.17;0.43;;;;;;;21.83;45.31;100414.50;5035818;28;20385;-60
2022/07/27 07:43:41;;;;;;;1.10;0.30;;;;;;;21.86;44.26;100416.09;5018119;28;20026;-60
2022/07/27 07:46:07;;;;;;;1.65;0.38;;;;;;;22.30;44.20;100401.50;5034461;28;20554;-60
2022/07/27 07:48:33;;;;;;;0.88;0.30;;;;;;;22.63;43.59;100415.19;5034462;28;20131;-60
2022/07/27 07:50:59;;;;;;;1.90;0.50;;;;;;;23.14;43.04;100397.28;5034071;28;20052;-60
2022/07/27 07:53:25;;;;;;;2.05;0.63;;;;;;;23.51;42.38;100395.44;5035461;28;20108;-60
2022/07/27 07:55:52;;;;;;;3.08;0.57;;;;;;;23.64;41.69;100396.19;5034282;28;20040;-60
2022/07/27 07:58:19;;;;;;;2.38;0.52;;;;;;;23.91;41.62;100398.63;5034205;28;20032;-60
2022/07/27 08:00:44;;;;;;;4.28;0.65;;;;;;;23.77;41.45;100406.88;5034038;28;20052;-60
2022/07/27 08:03:10;;;;;;;2.53;0.50;;;;;;;24.06;40.66;100410.03;5035252;28;20033;-60
2022/07/27 08:05:35;;;;;;;2.90;0.60;;;;;;;24.43;40.75;100412.53;5035349;28;20392;-60
2022/07/27 08:08:01;;;;;;;3.90;0.70;;;;;;;24.07;39.39;100409.03;5035383;28;20057;-60
2022/07/27 08:10:26;;;;;;;1.42;0.50;;;;;;;24.75;39.00;100404.59;5035115;28;20104;-60
2022/07/27 08:12:55;;;;;;;2.67;0.70;;;;;;;25.35;38.84;100400.59;5033899;28;20040;-60
2022/07/27 08:15:20;;;;;;;3.83;0.60;;;;;;;25.39;38.80;100415.50;5033556;28;20033;-60
2022/07/27 08:17:46;;;;;;;2.35;0.60;;;;;;;25.03;37.84;100411.28;5034654;28;20056;-60
2022/07/27 08:20:13;;;;;;;3.58;0.70;;;;;;;25.07;35.17;100410.91;5035003;28;20029;-59
2022/07/27 08:22:39;;;;;;;3.17;0.45;;;;;;;25.04;36.08;100413.81;5033644;28;20028;-59
2022/07/27 08:25:06;;;;;;;0.95;0.40;;;;;;;25.20;36.31;100413.47;5034999;28;20041;-59
2022/07/27 08:27:32;;;;;;;3.05;0.40;;;;;;;25.33;36.10;100409.75;5033663;28;20029;-59
2022/07/27 08:29:57;;;;;;;1.17;0.40;;;;;;;25.22;36.63;100403.44;5033402;28;20035;-59
2022/07/27 08:32:23;;;;;;;2.85;0.73;;;;;;;25.74;35.96;100409.84;5035114;28;20030;-59
2022/07/27 08:34:50;;;;;;;1.92;0.60;;;;;;;26.20;35.06;100405.91;5033198;28;20449;-59
2022/07/27 08:37:15;;;;;;;3.75;0.77;;;;;;;26.22;35.74;100414.72;5017015;28;20428;-59
2022/07/27 08:39:42;;;;;;;3.55;0.60;;;;;;;26.33;34.54;100424.56;5033424;28;20029;-59
2022/07/27 08:42:09;;;;;;;1.50;0.50;;;;;;;24.92;34.60;100438.16;5033482;28;20025;-60
2022/07/27 08:44:43;;;;;;;4.00;0.70;;;;;;;24.70;35.61;100425.63;5032870;28;20106;-60
2022/07/27 08:47:09;;;;;;;;;;;;;;;24.68;37.23;100431.09;5033655;28;20025;-60
2022/07/27 08:49:35;;;;;;;3.70;0.65;;;;;;;24.75;37.65;100432.31;5033205;28;19920;-60
2022/07/27 08:52:01;;;;;;;1.73;0.45;;;;;;;24.42;36.65;100424.25;5032930;28;20048;-60
2022/07/27 08:54:27;;;;;;;2.97;0.68;;;;;;;24.68;36.57;100435.63;5033980;28;20452;-60
2022/07/27 08:56:53;;;;;;;1.80;0.57;;;;;;;25.07;36.41;100426.19;5032868;28;20060;-60
2022/07/27 08:59:18;;;;;;;2.88;0.60;;;;;;;25.62;36.16;100437.78;5032814;28;20068;-60
2022/07/27 09:01:44;;;;;;;3.53;0.50;;;;;;;25.88;35.23;100437.44;5034138;28;20116;-60
2022/07/27 09:04:10;;;;;;;3.00;0.43;;;;;;;26.13;34.18;100431.69;5033885;28;20053;-60
2022/07/27 09:06:48;;;;;;;2.85;0.47;;;;;;;26.55;34.91;100433.50;5032561;28;20068;-60
2022/07/27 09:09:16;;;;;;;1.45;0.50;;;;;;;26.52;33.53;100437.31;5032579;28;20033;-60
2022/07/27 09:11:42;;;;;;;3.25;0.43;;;;;;;26.75;34.14;100425.34;5032640;28;20021;-60
2022/07/27 09:14:11;;;;;;;1.80;0.55;;;;;;;26.71;32.91;100433.84;5033788;28;20420;-60
2022/07/27 09:16:37;;;;;;;2.78;0.50;;;;;;;26.67;33.36;100433.25;5033718;28;20048;-61
2022/07/27 09:19:05;;;;;;;4.45;0.70;;;;;;;25.99;34.58;100432.00;5032301;28;20543;-60
2022/07/27 09:21:32;;;;;;;1.50;0.50;;;;;;;25.42;34.22;100449.34;5032414;28;20491;-60
2022/07/27 09:24:12;;;;;;;1.85;0.55;;;;;;;24.91;34.63;100442.69;5032623;28;20029;-60
2022/07/27 09:26:38;;;;;;;2.28;0.50;;;;;;;26.01;35.11;100438.09;5032476;28;20025;-61
2022/07/27 09:29:13;;;;;;;1.77;0.70;;;;;;;25.88;33.50;100435.59;5032099;28;20049;-60
2022/07/27 09:31:45;;;;;;;2.25;0.70;;;;;;;26.20;32.90;100442.75;5032554;28;20035;-60
2022/07/27 09:34:24;;;;;;;2.35;0.50;;;;;;;25.74;34.28;100442.13;5032055;28;20389;-59
2022/07/27 09:36:56;;;;;;;4.30;0.70;;;;;;;25.60;34.11;100437.03;5032196;28;20033;-60
2022/07/27 09:39:23;;;;;;;1.50;0.47;;;;;;;25.47;35.26;100444.44;5032261;28;20049;-60
2022/07/27 09:41:53;;;;;;;1.88;0.40;;;;;;;25.50;34.74;100455.78;5032231;28;20048;-59
2022/07/27 09:44:51;;;;;;;1.40;0.43;;;;;;;25.88;34.46;100448.22;5032476;28;20095;-59
2022/07/27 09:47:25;;;;;;;1.42;0.40;;;;;;;25.25;34.16;100453.41;5021732;28;20049;-60
2022/07/27 09:49:51;;;;;;;4.32;0.50;;;;;;;24.67;36.42;100447.34;5033025;28;20024;-59
2022/07/27 09:52:29;;;;;;;3.85;0.60;;;;;;;23.91;35.67;100446.94;5033732;28;20083;-59
2022/07/27 09:55:02;;;;;;;1.92;0.40;;;;;;;23.92;36.66;100437.06;5015776;28;20032;-60
2022/07/27 09:57:27;;;;;;;0.90;0.32;;;;;;;24.12;36.43;100444.44;5032023;28;20132;-59
2022/07/27 10:00:23;;;;;;;2.05;0.47;;;;;;;24.11;35.12;100448.09;5033261;28;20477;-59
2022/07/27 10:02:51;;;;;;;2.85;0.45;;;;;;;24.61;35.83;100451.34;5011017;28;20124;-60
2022/07/27 10:05:20;;;;;;;3.95;0.70;;;;;;;25.24;35.40;100444.50;5016029;28;20500;-60
2022/07/27 10:07:45;;;;;;;2.30;0.60;;;;;;;25.40;34.60;100438.69;5031824;28;20029;-60
2022/07/27 10:10:13;;;;;;;2.50;0.47;;;;;;;25.17;34.90;100437.91;5033208;28;20086;-60
2022/07/27 10:12:42;;;;;;;3.25;0.60;;;;;;;24.75;35.73;100447.59;5032003;28;20086;-60
2022/07/27 10:15:08;;;;;;;2.63;0.38;;;;;;;24.84;35.29;100444.16;5031962;28;20528;-60
2022/07/27 10:17:36;;;;;;;2.10;0.50;;;;;;;25.21;33.90;100441.19;5031991;28;20400;-59
2022/07/27 10:20:07;;;;;;;2.35;0.63;;;;;;;25.05;34.13;100450.50;5032267;28;20056;-59
2022/07/27 10:22:53;;;;;;;1.67;0.60;;;;;;;25.10;33.55;100441.25;5033031;28;20465;-59
2022/07/27 10:25:20;;;;;;;1.65;0.40;;;;;;;25.00;34.27;100438.41;5031974;28;20025;-59
2022/07/27 10:27:48;;;;;;;2.25;0.77;;;;;;;25.01;33.70;100450.84;5031852;28;20022;-59
2022/07/27 10:30:16;;;;;;;2.15;0.70;;;;;;;24.80;34.32;100450.75;5015606;28;20047;-59
2022/07/27 10:32:43;;;;;;;1.58;0.60;;;;;;;24.42;34.54;100445.75;5031879;28;20026;-59
2022/07/27 10:35:33;;;;;;;2.70;0.68;;;;;;;24.99;33.63;100450.13;5031292;28;20057;-59
2022/07/27 10:38:15;;;;;;;2.67;0.40;;;;;;;25.39;33.54;100446.91;5031797;28;20483;-59
2022/07/27 10:40:42;;;;;;;2.75;0.50;;;;;;;26.02;33.19;100447.91;5032993;28;20029;-59
2022/07/27 10:43:17;;;;;;;2.20;0.50;;;;;;;26.43;32.82;100448.84;5031848;28;20040;-59
2022/07/27 10:45:45;;;;;;;1.70;0.52;;;;;;;27.15;31.79;100448.78;5031710;28;20397;-59
2022/07/27 10:48:34;;;;;;;3.17;0.70;;;;;;;26.31;32.48;100450.78;5031753;28;20138;-59
2022/07/27 10:51:00;;;;;;;1.63;0.40;;;;;;;25.83;33.57;100450.44;5031535;28;20068;-59
2022/07/27 10:53:37;;;;;;;3.03;0.63;;;;;;;25.86;32.32;100474.41;5032932;28;20053;-59
2022/07/27 10:56:04;;;;;;;2.33;0.40;;;;;;;25.85;32.96;100456.53;5032664;28;20033;-59
2022/07/27 10:58:32;;;;;;;0.85;0.30;;;;;;;25.43;33.27;100445.69;5032777;28;20461;-59
2022/07/27 11:01:03;;;;;;;2.05;0.40;;;;;;;25.35;34.44;100451.69;5031564;28;20469;-59
2022/07/27 11:03:35;;;;;;;1.60;0.50;;;;;;;25.60;32.61;100455.88;5036612;28;20021;-59
2022/07/27 11:06:08;;;;;;;1.75;0.63;;;;;;;26.39;33.97;100440.19;5036432;28;20366;-60
2022/07/27 11:08:36;;;;;;;2.95;0.50;;;;;;;26.64;32.34;100452.38;5036383;28;20473;-60
2022/07/27 11:11:03;;;;;;;7.47;0.60;;;;;;;26.45;32.57;100457.69;5035508;28;20056;-59
2022/07/27 11:13:29;;;;;;;2.72;0.38;;;;;;;26.34;32.99;100460.44;5018603;28;20380;-60
2022/07/27 11:16:07;;;;;;;1.67;0.43;;;;;;;25.79;32.53;100453.38;5034865;28;20083;-59
2022/07/27 11:18:36;;;;;;;2.00;0.40;;;;;;;26.09;32.95;100456.28;5035059;28;20124;-59
2022/07/27 11:21:22;;;;;;;3.45;0.32;;;;;;;26.09;32.44;100462.53;5034779;28;20043;-59
2022/07/27 11:23:50;;;;;;;0.80;0.30;;;;;;;25.51;33.89;100462.03;5034962;28;20029;-60
2022/07/27 11:26:16;;;;;;;1.77;0.40;;;;;;;25.12;34.92;100445.50;5034752;28;20111;-59
2022/07/27 11:28:43;;;;;;;3.15;0.50;;;;;;;25.36;34.87;100448.00;5034843;28;20033;-61